createdAt,value
2022-12-11T00:02:05.853Z,43.90
2022-12-11T00:04:32.220Z,43.95
2022-12-11T00:06:58.543Z,43.84
2022-12-11T00:09:24.864Z,43.96
2022-12-11T00:11:51.216Z,44.00
2022-12-11T00:14:17.565Z,43.95
2022-12-11T00:16:43.900Z,43.88
2022-12-11T00:19:10.277Z,43.91
2022-12-11T00:21:36.681Z,44.03
2022-12-11T00:24:03.013Z,43.73
2022-12-11T00:26:29.346Z,43.91
2022-12-11T00:28:55.905Z,44.05
2022-12-11T00:31:22.327Z,44.23
2022-12-11T00:33:49.163Z,44.03
2022-12-11T00:36:16.386Z,44.24
2022-12-11T00:38:43.458Z,44.17
2022-12-11T00:41:09.782Z,44.02
2022-12-11T00:43:36.091Z,43.98
2022-12-11T00:46:02.457Z,44.11
2022-12-11T00:48:28.853Z,44.03
2022-12-11T00:50:55.177Z,43.95
2022-12-11T00:53:21.540Z,43.93
2022-12-11T00:55:56.713Z,43.96
2022-12-11T00:58:23.024Z,44.05
2022-12-11T01:00:51.979Z,43.96
2022-12-11T01:03:18.370Z,43.98
2022-12-11T01:05:51.692Z,43.98
2022-12-11T01:08:18.515Z,43.86
2022-12-11T01:10:44.894Z,43.97
2022-12-11T01:13:11.322Z,43.80
2022-12-11T01:15:42.048Z,43.97
2022-12-11T01:18:08.767Z,43.87
2022-12-11T01:20:35.105Z,43.81
2022-12-11T01:23:01.446Z,43.91
2022-12-11T01:25:27.776Z,44.00
2022-12-11T01:27:54.445Z,43.92
2022-12-11T01:30:21.088Z,43.82
2022-12-11T01:32:47.392Z,44.02
2022-12-11T01:35:13.745Z,43.74
2022-12-11T01:37:40.052Z,43.83
2022-12-11T01:40:06.769Z,43.82
2022-12-11T01:42:33.096Z,43.80
2022-12-11T01:45:17.682Z,43.88
2022-12-11T01:47:44.034Z,43.87
2022-12-11T01:50:10.390Z,43.83
2022-12-11T01:52:36.706Z,43.83
2022-12-11T01:55:03.035Z,43.84
2022-12-11T01:57:29.362Z,43.69
2022-12-11T01:59:55.699Z,43.82
2022-12-11T02:02:29.430Z,43.70
2022-12-11T02:04:55.789Z,43.69
2022-12-11T02:07:22.104Z,43.84
2022-12-11T02:09:48.432Z,43.85
2022-12-11T02:12:14.681Z,43.76
2022-12-11T02:14:55.966Z,43.78
2022-12-11T02:17:23.800Z,43.85
2022-12-11T02:19:55.252Z,43.79
2022-12-11T02:22:27.133Z,43.97
2022-12-11T02:24:59.070Z,43.87
2022-12-11T02:27:41.971Z,43.80
2022-12-11T02:30:08.976Z,43.77
2022-12-11T02:32:37.139Z,43.81
2022-12-11T02:35:05.998Z,43.84
2022-12-11T02:37:32.346Z,43.79
2022-12-11T02:39:58.708Z,43.74
2022-12-11T02:42:26.076Z,43.67
2022-12-11T02:44:52.401Z,44.00
2022-12-11T02:47:19.200Z,43.94
2022-12-11T02:49:46.398Z,43.84
2022-12-11T02:52:13.086Z,43.87
2022-12-11T02:54:39.412Z,43.92
2022-12-11T02:57:09.693Z,43.80
2022-12-11T02:59:36.816Z,43.94
2022-12-11T03:02:03.274Z,43.88
2022-12-11T03:04:29.665Z,43.77
2022-12-11T03:06:56.446Z,43.84
2022-12-11T03:09:22.772Z,43.87
2022-12-11T03:11:49.108Z,43.86
2022-12-11T03:14:15.420Z,43.81
2022-12-11T03:16:42.817Z,43.85
2022-12-11T03:19:38.340Z,43.82
2022-12-11T03:22:11.773Z,43.73
2022-12-11T03:24:39.389Z,43.79
2022-12-11T03:27:15.456Z,43.82
2022-12-11T03:29:43.450Z,43.80
2022-12-11T03:32:13.498Z,43.73
2022-12-11T03:35:03.291Z,43.72
2022-12-11T03:37:31.021Z,43.68
2022-12-11T03:39:58.159Z,43.47
2022-12-11T03:42:24.502Z,43.62
2022-12-11T03:44:50.845Z,43.71
2022-12-11T03:47:18.059Z,43.67
2022-12-11T03:49:44.586Z,43.58
2022-12-11T03:52:11.115Z,43.71
2022-12-11T03:54:37.444Z,43.57
2022-12-11T03:57:03.961Z,43.61
2022-12-11T03:59:30.316Z,43.71
2022-12-11T04:01:56.676Z,43.67
2022-12-11T04:04:23.044Z,43.68
2022-12-11T04:06:49.389Z,44.01
2022-12-11T04:09:15.697Z,43.87
2022-12-11T04:11:42.919Z,44.12
2022-12-11T04:14:28.356Z,43.93
2022-12-11T04:16:54.661Z,44.29
2022-12-11T04:19:39.813Z,44.04
2022-12-11T04:22:24.625Z,44.04
2022-12-11T04:24:51.013Z,44.31
2022-12-11T04:27:37.454Z,44.28
2022-12-11T04:30:04.840Z,44.15
2022-12-11T04:32:31.162Z,44.36
2022-12-11T04:34:57.501Z,44.42
2022-12-11T04:37:23.833Z,44.55
2022-12-11T04:39:50.169Z,43.53
2022-12-11T04:42:16.486Z,43.15
2022-12-11T04:44:42.987Z,43.24
2022-12-11T04:47:09.293Z,43.49
2022-12-11T04:49:35.599Z,43.62
2022-12-11T04:52:01.908Z,43.77
2022-12-11T04:54:29.653Z,43.92
2022-12-11T04:56:55.985Z,44.24
2022-12-11T04:59:22.307Z,44.03
2022-12-11T05:01:48.686Z,44.01
2022-12-11T05:04:15.046Z,44.09
2022-12-11T05:06:41.361Z,44.13
2022-12-11T05:09:10.774Z,44.25
2022-12-11T05:11:37.097Z,44.24
2022-12-11T05:14:04.480Z,44.42
2022-12-11T05:16:30.848Z,44.16
2022-12-11T05:18:57.205Z,44.51
2022-12-11T05:21:23.518Z,44.37
2022-12-11T05:23:49.824Z,44.46
2022-12-11T05:26:17.154Z,44.13
2022-12-11T05:28:43.536Z,44.26
2022-12-11T05:31:17.226Z,44.31
2022-12-11T05:33:43.825Z,44.31
2022-12-11T05:36:13.655Z,44.13
2022-12-11T05:38:40.078Z,44.29
2022-12-11T05:41:06.517Z,44.14
2022-12-11T05:43:33.669Z,44.23
2022-12-11T05:53:21.067Z,44.12
2022-12-11T05:55:47.414Z,44.09
2022-12-11T05:58:13.747Z,44.28
2022-12-11T06:00:41.515Z,44.24
2022-12-11T06:03:07.940Z,44.29
2022-12-11T06:05:40.463Z,44.44
2022-12-11T06:08:06.818Z,44.21
2022-12-11T06:10:33.209Z,44.48
2022-12-11T06:12:59.548Z,44.26
2022-12-11T06:15:25.886Z,44.31
2022-12-11T06:17:52.200Z,44.16
2022-12-11T06:20:18.520Z,44.30
2022-12-11T06:22:44.843Z,44.22
2022-12-11T06:25:11.595Z,44.21
2022-12-11T06:27:38.205Z,44.33
2022-12-11T06:30:04.632Z,44.47
2022-12-11T06:32:30.989Z,44.31
2022-12-11T06:34:57.288Z,44.33
2022-12-11T06:37:23.629Z,44.06
2022-12-11T06:39:49.940Z,44.20
2022-12-11T06:42:17.457Z,44.18
2022-12-11T06:44:43.772Z,44.22
2022-12-11T06:47:10.156Z,43.92
2022-12-11T06:49:36.480Z,43.97
2022-12-11T06:52:02.806Z,44.16
2022-12-11T06:54:29.118Z,44.02
2022-12-11T06:56:55.450Z,43.95
2022-12-11T06:59:21.782Z,44.13
2022-12-11T07:01:48.235Z,43.97
2022-12-11T07:04:14.634Z,44.17
2022-12-11T07:06:41.205Z,44.22
2022-12-11T07:09:07.534Z,44.05
2022-12-11T07:11:33.868Z,44.31
2022-12-11T07:14:00.713Z,44.26
2022-12-11T07:16:27.228Z,44.16
2022-12-11T07:18:53.573Z,44.45
2022-12-11T07:21:20.068Z,44.29
2022-12-11T07:23:46.677Z,44.46
2022-12-11T07:26:13.884Z,44.17
2022-12-11T07:28:40.199Z,44.25
2022-12-11T07:31:10.520Z,44.04
2022-12-11T07:33:36.874Z,43.98
2022-12-11T07:36:06.790Z,43.99
2022-12-11T07:38:33.105Z,44.21
2022-12-11T07:41:02.797Z,44.14
2022-12-11T07:43:29.111Z,44.21
2022-12-11T07:45:55.500Z,44.31
2022-12-11T07:48:21.863Z,44.34
2022-12-11T07:50:48.199Z,44.32
2022-12-11T07:53:14.548Z,44.61
2022-12-11T07:55:40.941Z,44.48
2022-12-11T07:58:07.285Z,44.51
2022-12-11T08:00:33.677Z,44.64
2022-12-11T08:03:00.037Z,44.68
2022-12-11T08:05:26.390Z,44.78
2022-12-11T08:07:52.815Z,44.49
2022-12-11T08:10:19.296Z,44.75
2022-12-11T08:12:45.646Z,44.59
2022-12-11T08:15:12.120Z,44.54
2022-12-11T08:17:40.282Z,44.40
2022-12-11T08:20:06.831Z,44.46
2022-12-11T08:22:33.382Z,44.42
2022-12-11T08:24:59.716Z,44.38
2022-12-11T08:27:27.918Z,44.44
2022-12-11T08:29:54.289Z,44.41
2022-12-11T08:32:20.634Z,44.25
2022-12-11T08:34:47.010Z,44.26
2022-12-11T08:37:13.619Z,44.19
2022-12-11T08:39:39.930Z,44.30
2022-12-11T08:42:06.736Z,44.24
2022-12-11T08:44:33.039Z,44.36
2022-12-11T08:46:59.346Z,44.33
2022-12-11T08:49:27.600Z,44.35
2022-12-11T08:51:57.540Z,44.31
2022-12-11T08:54:23.869Z,44.50
2022-12-11T08:56:54.799Z,44.28
2022-12-11T08:59:25.518Z,44.26
2022-12-11T09:01:52.018Z,44.44
2022-12-11T09:04:18.408Z,44.16
2022-12-11T09:06:44.762Z,44.47
2022-12-11T09:09:11.081Z,44.40
2022-12-11T09:11:37.799Z,44.41
2022-12-11T09:14:07.692Z,44.40
2022-12-11T09:16:37.534Z,44.49
2022-12-11T09:19:03.857Z,44.59
2022-12-11T09:21:30.309Z,44.63
2022-12-11T09:23:57.709Z,44.49
2022-12-11T09:26:24.407Z,43.68
2022-12-11T09:28:53.828Z,43.32
2022-12-11T09:31:24.243Z,43.64
2022-12-11T09:33:51.919Z,42.66
2022-12-11T09:36:18.750Z,42.44
2022-12-11T09:38:48.661Z,42.03
2022-12-11T09:41:24.562Z,42.31
2022-12-11T09:44:15.080Z,42.62
2022-12-11T09:46:41.471Z,42.62
2022-12-11T09:49:27.552Z,42.92
2022-12-11T09:52:05.841Z,43.25
2022-12-11T09:54:32.303Z,43.17
2022-12-11T09:57:03.052Z,43.68
2022-12-11T09:59:48.244Z,44.05
2022-12-11T10:02:30.592Z,43.75
2022-12-11T10:05:32.702Z,43.83
2022-12-11T10:08:07.812Z,44.14
2022-12-11T10:10:43.801Z,44.21
2022-12-11T10:13:13.637Z,44.06
2022-12-11T10:15:41.057Z,44.16
2022-12-11T10:18:10.221Z,43.92
2022-12-11T10:20:39.164Z,44.05
2022-12-11T10:23:09.260Z,44.07
2022-12-11T10:25:36.053Z,44.35
2022-12-11T10:28:08.950Z,44.00
2022-12-11T10:30:38.505Z,44.38
2022-12-11T10:33:10.911Z,44.21
2022-12-11T10:35:43.496Z,44.24
2022-12-11T10:38:36.763Z,44.27
2022-12-11T10:41:10.300Z,44.39
2022-12-11T10:43:37.463Z,44.33
2022-12-11T10:46:03.999Z,44.25
2022-12-11T10:48:30.368Z,44.28
2022-12-11T10:51:00.688Z,44.44
2022-12-11T10:53:27.138Z,44.36
2022-12-11T10:55:53.509Z,44.17
2022-12-11T10:58:20.543Z,44.43
2022-12-11T11:00:46.869Z,44.39
2022-12-11T11:03:22.847Z,44.32
2022-12-11T11:05:50.624Z,44.40
2022-12-11T11:08:19.314Z,44.38
2022-12-11T11:10:55.705Z,44.35
2022-12-11T11:13:22.956Z,44.26
2022-12-11T11:15:49.584Z,44.24
2022-12-11T11:18:22.848Z,44.43
2022-12-11T11:20:49.166Z,44.40
2022-12-11T11:23:15.799Z,44.27
2022-12-11T11:25:48.878Z,44.29
2022-12-11T11:28:21.077Z,44.22
2022-12-11T11:30:57.399Z,44.28
2022-12-11T11:33:23.732Z,44.03
2022-12-11T11:35:53.309Z,44.17
2022-12-11T11:38:20.337Z,44.17
2022-12-11T11:40:46.581Z,43.96
2022-12-11T11:43:20.223Z,44.08
2022-12-11T11:45:49.772Z,44.07
2022-12-11T11:48:30.721Z,44.05
2022-12-11T11:50:57.913Z,43.94
2022-12-11T11:53:30.262Z,44.00
2022-12-11T11:56:10.510Z,43.94
2022-12-11T11:58:39.534Z,44.02
2022-12-11T12:01:08.621Z,44.16
2022-12-11T12:03:35.410Z,44.08
2022-12-11T12:06:04.557Z,44.03
2022-12-11T12:08:46.544Z,43.75
2022-12-11T12:11:25.852Z,43.86
2022-12-11T12:14:02.350Z,43.88
2022-12-11T12:16:52.645Z,45.23
2022-12-11T12:19:19.551Z,45.54
2022-12-11T12:21:48.015Z,44.81
2022-12-11T12:24:29.877Z,44.95
2022-12-11T12:27:02.530Z,44.90
2022-12-11T12:29:45.347Z,44.39
2022-12-11T12:32:27.839Z,45.46
2022-12-11T12:34:57.074Z,45.00
2022-12-11T12:37:35.536Z,45.43
2022-12-11T12:40:16.624Z,45.50
2022-12-11T12:42:54.253Z,45.83
2022-12-11T12:45:39.389Z,45.78
2022-12-11T12:48:06.809Z,45.43
2022-12-11T12:50:37.102Z,45.88
2022-12-11T12:53:03.419Z,45.05
2022-12-11T12:55:29.748Z,44.83
2022-12-11T12:57:57.685Z,45.39
2022-12-11T13:00:27.785Z,45.81
2022-12-11T13:02:56.139Z,45.92
2022-12-11T13:05:31.724Z,45.35
2022-12-11T13:07:59.485Z,45.24
2022-12-11T13:10:28.665Z,45.31
2022-12-11T13:12:55.106Z,45.54
2022-12-11T13:15:25.751Z,44.93
2022-12-11T13:17:52.088Z,45.20
2022-12-11T13:20:19.375Z,45.21
2022-12-11T13:22:56.041Z,45.00
2022-12-11T13:25:26.816Z,45.25
2022-12-11T13:27:53.185Z,45.08
2022-12-11T13:30:19.482Z,45.11
2022-12-11T13:32:58.560Z,44.90
2022-12-11T13:35:24.899Z,45.04
2022-12-11T13:37:51.222Z,44.90
2022-12-11T13:40:17.454Z,45.08
2022-12-11T13:42:47.481Z,45.12
2022-12-11T13:45:21.985Z,45.21
2022-12-11T13:47:48.301Z,45.24
2022-12-11T13:50:16.102Z,45.40
2022-12-11T13:52:52.137Z,45.43
2022-12-11T13:55:25.619Z,45.13
2022-12-11T13:57:51.972Z,45.10
2022-12-11T14:00:28.088Z,45.05
2022-12-11T14:02:54.833Z,44.99
2022-12-11T14:05:21.159Z,45.18
2022-12-11T14:07:48.489Z,45.00
2022-12-11T14:10:16.137Z,44.95
2022-12-11T14:12:47.442Z,45.15
2022-12-11T14:15:14.722Z,45.18
2022-12-11T14:17:41.595Z,45.24
2022-12-11T14:20:11.625Z,45.31
2022-12-11T14:22:38.228Z,44.92
2022-12-11T14:25:14.780Z,45.22
2022-12-11T14:27:46.394Z,44.90
2022-12-11T14:30:13.341Z,45.08
2022-12-11T14:32:42.281Z,45.02
2022-12-11T14:35:11.726Z,45.07
2022-12-11T14:37:38.104Z,44.78
2022-12-11T14:40:16.102Z,44.84
2022-12-11T14:42:50.219Z,45.00
2022-12-11T14:45:20.885Z,45.01
2022-12-11T14:47:47.227Z,44.93
2022-12-11T14:50:16.825Z,45.07
2022-12-11T14:52:44.059Z,45.11
2022-12-11T14:55:14.017Z,44.97
2022-12-11T14:57:40.372Z,45.10
2022-12-11T15:00:07.027Z,45.06
2022-12-11T15:02:34.607Z,45.06
2022-12-11T15:05:04.011Z,44.96
2022-12-11T15:07:30.323Z,44.92
2022-12-11T15:09:56.628Z,44.86
2022-12-11T15:12:22.946Z,44.84
2022-12-11T15:14:56.086Z,44.94
2022-12-11T15:17:22.654Z,44.84
2022-12-11T15:19:51.077Z,44.68
2022-12-11T15:22:17.417Z,44.78
2022-12-11T15:24:44.002Z,44.72
2022-12-11T15:27:36.878Z,44.78
2022-12-11T15:30:18.378Z,44.51
2022-12-11T15:32:44.698Z,44.62
2022-12-11T15:35:23.894Z,44.62
2022-12-11T15:37:53.783Z,44.75
2022-12-11T15:40:20.103Z,44.69
2022-12-11T15:42:46.411Z,44.52
2022-12-11T15:45:19.675Z,44.55
2022-12-11T15:47:46.024Z,44.47
2022-12-11T15:50:16.727Z,44.33
2022-12-11T15:52:43.254Z,44.33
2022-12-11T15:55:09.990Z,44.27
2022-12-11T15:57:36.611Z,44.25
2022-12-11T16:00:03.153Z,44.03
2022-12-11T16:02:31.344Z,43.75
2022-12-11T16:04:57.699Z,43.70
2022-12-11T16:07:24.810Z,43.63
2022-12-11T16:09:51.286Z,43.79
2022-12-11T16:12:17.695Z,43.84
2022-12-11T16:14:44.630Z,43.65
2022-12-11T16:17:12.674Z,43.62
2022-12-11T16:19:39.477Z,43.50
2022-12-11T16:22:05.995Z,43.55
2022-12-11T16:24:32.769Z,43.35
2022-12-11T16:26:59.213Z,43.29
2022-12-11T16:29:25.691Z,43.25
2022-12-11T16:31:52.205Z,43.02
2022-12-11T16:34:18.696Z,42.82
2022-12-11T16:36:45.133Z,42.94
2022-12-11T16:39:12.188Z,42.73
2022-12-11T16:41:38.639Z,42.70
2022-12-11T16:44:05.635Z,42.62
2022-12-11T16:46:32.164Z,42.84
2022-12-11T16:48:58.674Z,42.82
2022-12-11T16:51:25.071Z,42.75
2022-12-11T16:53:51.827Z,42.72
2022-12-11T16:56:18.225Z,42.79
2022-12-11T16:58:44.561Z,41.45
2022-12-11T17:01:12.727Z,41.53
2022-12-11T17:03:39.193Z,42.19
2022-12-11T17:06:06.098Z,42.05
2022-12-11T17:08:32.439Z,42.13
2022-12-11T17:10:58.823Z,42.31
2022-12-11T17:13:25.192Z,42.23
2022-12-11T17:15:51.579Z,42.12
2022-12-11T17:18:18.368Z,42.16
2022-12-11T17:20:47.485Z,42.24
2022-12-11T17:23:13.855Z,42.17
2022-12-11T17:25:40.972Z,42.16
2022-12-11T17:28:07.305Z,42.00
2022-12-11T17:30:33.635Z,41.65
2022-12-11T17:33:00.034Z,41.67
2022-12-11T17:35:26.553Z,41.68
2022-12-11T17:37:52.940Z,41.48
2022-12-11T17:40:20.698Z,41.55
2022-12-11T17:42:47.475Z,41.75
2022-12-11T17:45:14.180Z,41.60
2022-12-11T17:47:40.728Z,41.67
2022-12-11T17:50:10.030Z,41.69
2022-12-11T17:52:42.481Z,41.79
2022-12-11T17:55:10.867Z,41.83
2022-12-11T17:57:37.928Z,41.76
2022-12-11T18:00:04.668Z,41.91
2022-12-11T18:02:38.745Z,42.04
2022-12-11T18:05:05.083Z,42.00
2022-12-11T18:07:31.406Z,42.01
2022-12-11T18:09:57.776Z,42.04
2022-12-11T18:12:24.100Z,41.99
2022-12-11T18:14:50.420Z,41.97
2022-12-11T18:17:16.734Z,42.06
2022-12-11T18:19:46.170Z,41.84
2022-12-11T18:22:12.701Z,42.09
2022-12-11T18:24:39.029Z,41.98
2022-12-11T18:27:07.382Z,42.28
2022-12-11T18:29:33.800Z,42.17
2022-12-11T18:32:00.285Z,42.25
2022-12-11T18:46:24.168Z,34.84
2022-12-11T18:48:50.734Z,44.52
2022-12-11T18:51:18.420Z,41.43
2022-12-11T18:53:44.764Z,40.67
2022-12-11T18:56:11.859Z,40.48
2022-12-11T18:58:38.239Z,40.17
2022-12-11T19:01:08.510Z,40.40
2022-12-11T19:03:34.874Z,39.67
2022-12-11T19:06:08.067Z,39.90
2022-12-11T19:08:34.422Z,40.07
2022-12-11T19:11:01.438Z,40.39
2022-12-11T19:13:27.756Z,40.33
2022-12-11T19:15:54.289Z,40.73
2022-12-11T19:18:21.233Z,41.43
2022-12-11T19:20:50.948Z,42.09
2022-12-11T19:23:20.810Z,42.74
2022-12-11T19:25:47.503Z,43.19
2022-12-11T19:28:14.585Z,43.19
2022-12-11T19:30:49.224Z,43.30
2022-12-11T19:33:15.772Z,43.38
2022-12-11T19:35:43.523Z,43.52
2022-12-11T19:38:09.853Z,43.38
2022-12-11T19:40:43.548Z,43.58
2022-12-11T19:43:09.893Z,44.13
2022-12-11T19:45:36.372Z,43.96
2022-12-11T19:48:05.661Z,43.88
2022-12-11T19:50:32.293Z,43.76
2022-12-11T19:52:58.691Z,43.61
2022-12-11T19:55:25.025Z,43.49
2022-12-11T19:57:51.490Z,43.56
2022-12-11T20:00:18.767Z,43.48
2022-12-11T20:02:45.142Z,43.55
2022-12-11T20:05:11.711Z,44.28
2022-12-11T20:07:38.755Z,43.71
2022-12-11T20:10:05.242Z,43.43
2022-12-11T20:12:31.560Z,43.07
2022-12-11T20:14:57.900Z,43.10
2022-12-11T20:17:24.353Z,43.00
2022-12-11T20:19:50.781Z,42.76
2022-12-11T20:22:17.382Z,42.70
2022-12-11T20:24:43.722Z,42.60
2022-12-11T20:27:10.275Z,42.55
2022-12-11T20:29:37.787Z,42.61
2022-12-11T20:32:04.947Z,42.43
2022-12-11T20:34:31.337Z,42.27
2022-12-11T20:36:57.663Z,42.25
2022-12-11T20:39:23.999Z,42.17
2022-12-11T20:41:50.341Z,42.21
2022-12-11T20:44:25.934Z,42.21
2022-12-11T20:46:52.326Z,42.36
2022-12-11T20:49:18.641Z,42.64
2022-12-11T20:51:45.003Z,42.86
2022-12-11T20:54:17.572Z,42.77
2022-12-11T20:57:09.642Z,42.93
2022-12-11T20:59:36.298Z,42.76
2022-12-11T21:02:02.680Z,42.87
2022-12-11T21:04:29.524Z,43.36
2022-12-11T21:06:56.194Z,43.29
2022-12-11T21:09:24.136Z,43.10
2022-12-11T21:11:50.643Z,43.19
2022-12-11T21:14:17.152Z,43.15
2022-12-11T21:16:46.875Z,43.23
2022-12-11T21:19:17.214Z,42.95
2022-12-11T21:21:43.704Z,42.86
2022-12-11T21:24:16.924Z,42.91
2022-12-11T21:26:46.063Z,42.93
2022-12-11T21:29:15.085Z,43.01
2022-12-11T21:31:41.640Z,42.82
2022-12-11T21:34:08.024Z,42.76
2022-12-11T21:36:34.352Z,42.93
2022-12-11T21:39:00.966Z,42.77
2022-12-11T21:41:27.280Z,42.85
2022-12-11T21:47:24.596Z,42.97
2022-12-11T21:49:50.958Z,42.96
2022-12-11T21:52:17.659Z,42.94
2022-12-11T21:54:44.074Z,42.86
2022-12-11T21:57:10.404Z,42.91
2022-12-11T21:59:36.731Z,42.73
2022-12-11T22:02:03.175Z,42.77
2022-12-11T22:04:29.597Z,42.66
2022-12-11T22:06:55.955Z,42.69
2022-12-11T22:09:22.280Z,42.82
2022-12-11T22:11:50.618Z,42.75
2022-12-11T22:14:20.093Z,42.90
2022-12-11T22:16:46.546Z,42.95
2022-12-11T22:19:12.970Z,43.08
2022-12-11T22:21:39.370Z,42.97
2022-12-11T22:24:05.724Z,43.02
2022-12-11T22:26:32.056Z,43.06
2022-12-11T22:28:58.392Z,42.90
2022-12-11T22:31:28.158Z,42.97
2022-12-11T22:33:54.917Z,43.03
2022-12-11T22:36:21.704Z,42.95
2022-12-11T22:38:48.049Z,43.25
2022-12-11T22:41:18.957Z,42.92
2022-12-11T22:43:48.767Z,43.00
2022-12-11T22:46:15.731Z,43.12
2022-12-11T22:48:42.233Z,43.04
2022-12-11T22:51:08.593Z,43.13
2022-12-11T22:53:34.949Z,43.03
2022-12-11T22:56:07.633Z,43.07
2022-12-11T22:58:33.992Z,43.10
2022-12-11T23:01:00.785Z,42.90
2022-12-11T23:03:27.176Z,43.01
2022-12-11T23:05:53.582Z,42.86
2022-12-11T23:08:21.142Z,42.99
2022-12-11T23:10:48.365Z,42.91
2022-12-11T23:13:14.709Z,43.04
2022-12-11T23:15:41.127Z,42.97
2022-12-11T23:18:07.495Z,42.91
2022-12-11T23:20:33.851Z,42.95
2022-12-11T23:23:00.197Z,42.89
2022-12-11T23:25:27.918Z,42.91
2022-12-11T23:27:54.262Z,42.96
2022-12-11T23:30:20.606Z,42.80
2022-12-11T23:32:47.024Z,42.81
2022-12-11T23:35:13.619Z,42.86
2022-12-11T23:37:40.722Z,43.00
2022-12-11T23:40:07.365Z,42.81
2022-12-11T23:42:33.696Z,42.91
2022-12-11T23:45:00.044Z,42.92
2022-12-11T23:47:26.383Z,42.80
2022-12-11T23:49:52.713Z,42.83
2022-12-11T23:52:19.037Z,42.90
2022-12-11T23:54:45.537Z,42.88
2022-12-11T23:57:11.858Z,43.02
2022-12-11T23:59:38.164Z,42.87
